Huvudsida
METAR-TAF:

METAR-TAF

Flygplatser :

Newquay Cornwall Airport

Newquay Cornwall, England

latitud: 50-26N, longitud: 005-00W, höjd: 119 m

Aktuellt väderrapport

Denna rapport gjordes för 18 minuter sedan, klockan 00:20 UTC
Vind 2 kt varierande vindriktning
Temperatur 10°C
Fuktighet 93%
Tryck 1008 hPa
Sikt: 1200 m
fuktdis

METAR: EGHQ 230020Z AUTO VRB02KT 1200 BR BKN013/// 10/09 Q1008

Tid: 01:38 (00:38 UTC)

Väderprognos

Denna rapport gjordes för 33 minuter sedan, klockan 00:05 UTC
Prognos gäller från 23 kl. 00 UTC till 23 kl. 09 UTC
Vind 3 kt varierande vindriktning
Sikt: 0300 m
dimma
Blir
från 23 kl. 00 UTC till 23 kl. 03 UTC
Sikt 10 km eller mer
Spridda moln på en höjd av 1600 ft
Temporärt
från 23 kl. 06 UTC till 23 kl. 09 UTC
Sikt: 5000 m
Brutna moln på en höjd av 800 ft
regn, duggregn

TAF: EGHQ 230005Z 2300/2309 VRB03KT 0300 FG VV/// BECMG 2300/2303 9999 NSW SCT016 TEMPO 2306/2309 5000 RADZ BKN008

Aktuella väderrapporter och prognoser från 4000 flygplatser (METAR- och TAF-rapporter).

De tillgängliga stationerna syns som gula och röda prickar på kartan.

För musen över prickarna för att se namnen på stationerna.

Klicka sedan för att få väderrapporter och prognoser.

För att ändra kartan: Klicka på de gröna knapparna med ett svart kors på för att zooma in; den gröna knappen med ett streck på för att zooma ut; eller på de gröna pilarna för angränsande kartor.


METAR-TAF: